createdAt,value
2022-11-26T00:03:34.395Z,2.30
2022-11-26T00:07:22.156Z,2.08
2022-11-26T00:11:08.101Z,1.60
2022-11-26T00:14:50.087Z,2.03
2022-11-26T00:18:31.978Z,1.55
2022-11-26T00:22:28.942Z,1.65
2022-11-26T00:26:16.985Z,1.37
2022-11-26T00:29:58.860Z,2.78
2022-11-26T00:33:41.014Z,1.75
2022-11-26T00:37:29.509Z,1.77
2022-11-26T00:41:25.903Z,1.60
2022-11-26T00:45:33.398Z,1.73
2022-11-26T00:49:16.536Z,1.90
2022-11-26T00:52:58.451Z,1.40
2022-11-26T00:56:41.033Z,2.28
2022-11-26T01:00:26.338Z,1.63
2022-11-26T01:04:08.605Z,2.07
2022-11-26T01:07:53.080Z,1.73
2022-11-26T01:11:35.092Z,1.73
2022-11-26T01:15:18.731Z,1.70
2022-11-26T01:19:02.402Z,1.80
2022-11-26T01:22:44.430Z,1.73
2022-11-26T01:26:32.020Z,2.15
2022-11-26T01:30:29.667Z,1.60
2022-11-26T01:34:11.854Z,1.80
2022-11-26T01:37:53.986Z,1.55
2022-11-26T01:41:56.814Z,1.60
2022-11-26T01:45:38.939Z,1.98
2022-11-26T01:49:31.345Z,2.00
2022-11-26T01:53:32.950Z,2.08
2022-11-26T01:57:23.422Z,1.98
2022-11-26T02:01:05.641Z,2.88
2022-11-26T02:05:09.614Z,2.10
2022-11-26T02:08:51.703Z,2.03
2022-11-26T02:12:34.131Z,2.10
2022-11-26T02:16:50.219Z,2.28
2022-11-26T02:20:50.903Z,1.70
2022-11-26T02:24:45.663Z,2.55
2022-11-26T02:29:02.122Z,2.10
2022-11-26T02:33:11.833Z,1.88
2022-11-26T02:37:23.034Z,2.47
2022-11-26T02:41:05.625Z,1.90
2022-11-26T02:44:48.673Z,1.83
2022-11-26T02:48:37.920Z,2.13
2022-11-26T02:52:21.334Z,1.75
2022-11-26T02:56:16.442Z,2.03
2022-11-26T02:59:58.708Z,2.07
2022-11-26T03:03:49.022Z,1.90
2022-11-26T03:07:33.358Z,1.70
2022-11-26T03:11:15.253Z,1.83
2022-11-26T03:14:57.251Z,1.90
2022-11-26T03:18:39.387Z,1.70
2022-11-26T03:22:21.564Z,1.50
2022-11-26T03:26:03.581Z,2.03
2022-11-26T03:29:45.557Z,1.90
2022-11-26T03:33:27.481Z,2.00
2022-11-26T03:37:09.728Z,1.50
2022-11-26T03:41:03.884Z,1.52
2022-11-26T03:44:45.821Z,2.60
2022-11-26T03:48:27.707Z,1.50
2022-11-26T03:52:09.581Z,1.88
2022-11-26T03:55:51.525Z,1.55
2022-11-26T03:59:33.547Z,1.67
2022-11-26T04:03:15.546Z,1.20
2022-11-26T04:06:57.866Z,1.67
2022-11-26T04:10:39.769Z,1.65
2022-11-26T04:14:21.809Z,1.30
2022-11-26T04:18:03.835Z,1.70
2022-11-26T04:21:45.829Z,1.80
2022-11-26T04:25:27.838Z,2.20
2022-11-26T04:29:09.892Z,1.42
2022-11-26T04:32:51.811Z,2.08
2022-11-26T04:36:33.753Z,1.75
2022-11-26T04:40:15.823Z,1.50
2022-11-26T04:43:57.722Z,1.80
2022-11-26T04:47:42.913Z,1.70
2022-11-26T04:51:26.312Z,1.80
2022-11-26T04:55:08.630Z,1.73
2022-11-26T04:58:50.646Z,1.70
2022-11-26T05:02:32.627Z,1.48
2022-11-26T05:06:14.583Z,1.63
2022-11-26T05:09:56.513Z,1.35
2022-11-26T05:13:38.528Z,1.98
2022-11-26T05:17:20.370Z,1.93
2022-11-26T05:21:04.978Z,1.60
2022-11-26T05:24:47.001Z,1.63
2022-11-26T05:28:29.012Z,1.50
2022-11-26T05:32:10.919Z,1.73
2022-11-26T05:35:53.113Z,2.35
2022-11-26T05:39:35.202Z,2.22
2022-11-26T05:43:17.514Z,1.55
2022-11-26T05:47:02.337Z,1.60
2022-11-26T05:50:44.267Z,1.77
2022-11-26T05:54:26.275Z,1.53
2022-11-26T05:58:09.801Z,2.05
2022-11-26T06:01:51.724Z,1.90
2022-11-26T06:05:33.687Z,2.03
2022-11-26T06:09:15.640Z,1.77
2022-11-26T06:12:57.530Z,1.65
2022-11-26T06:16:39.669Z,1.75
2022-11-26T06:20:21.697Z,2.22
2022-11-26T06:24:03.838Z,2.08
2022-11-26T06:27:45.752Z,2.53
2022-11-26T06:31:27.623Z,2.00
2022-11-26T06:35:10.158Z,1.40
2022-11-26T06:38:52.205Z,2.10
2022-11-26T06:42:35.354Z,1.80
2022-11-26T06:46:17.370Z,1.45
2022-11-26T06:49:59.286Z,1.65
2022-11-26T06:53:43.771Z,1.73
2022-11-26T06:57:25.811Z,2.50
2022-11-26T07:01:12.353Z,1.92
2022-11-26T07:04:54.274Z,1.88
2022-11-26T07:08:36.148Z,2.30
2022-11-26T07:12:18.422Z,2.65
2022-11-26T07:16:04.945Z,1.80
2022-11-26T07:19:47.098Z,1.77
2022-11-26T07:23:28.975Z,1.88
2022-11-26T07:27:10.910Z,1.77
2022-11-26T07:30:52.735Z,2.55
2022-11-26T07:34:34.938Z,1.70
2022-11-26T07:38:16.825Z,2.40
2022-11-26T07:41:58.657Z,2.35
2022-11-26T07:45:40.481Z,1.60
2022-11-26T07:49:22.415Z,1.95
2022-11-26T07:53:04.315Z,2.03
2022-11-26T07:56:46.364Z,2.87
2022-11-26T08:00:28.386Z,1.98
2022-11-26T08:04:10.374Z,2.45
2022-11-26T08:07:52.290Z,2.10
2022-11-26T08:11:34.782Z,2.90
2022-11-26T08:15:16.784Z,2.35
2022-11-26T08:19:01.507Z,2.28
2022-11-26T08:22:43.407Z,2.00
2022-11-26T08:26:37.402Z,2.75
2022-11-26T08:30:21.743Z,2.17
2022-11-26T08:34:03.904Z,2.27
2022-11-26T08:37:45.780Z,1.58
2022-11-26T08:41:28.139Z,1.70
2022-11-26T08:45:10.392Z,2.05
2022-11-26T08:48:52.277Z,2.15
2022-11-26T08:52:34.319Z,2.03
2022-11-26T08:56:16.228Z,1.70
2022-11-26T08:59:59.010Z,2.20
2022-11-26T09:03:40.951Z,1.60
2022-11-26T09:07:23.077Z,2.20
2022-11-26T09:11:05.280Z,2.50
2022-11-26T09:14:47.197Z,2.38
2022-11-26T09:18:29.138Z,2.05
2022-11-26T09:22:11.068Z,2.55
2022-11-26T09:25:53.014Z,1.95
2022-11-26T09:29:34.961Z,2.33
2022-11-26T09:33:16.880Z,2.15
2022-11-26T09:36:58.925Z,1.50
2022-11-26T09:40:56.220Z,2.22
2022-11-26T09:44:47.254Z,1.77
2022-11-26T09:48:32.271Z,2.27
2022-11-26T09:53:08.289Z,2.08
2022-11-26T09:57:33.716Z,2.13
2022-11-26T10:06:05.596Z,2.10
2022-11-26T10:10:14.270Z,2.30
2022-11-26T10:14:15.381Z,2.33
2022-11-26T10:18:37.815Z,2.10
2022-11-26T10:23:04.100Z,2.58
2022-11-26T10:26:47.042Z,1.80
2022-11-26T10:31:11.890Z,2.13
2022-11-26T10:35:33.530Z,2.50
2022-11-26T10:39:18.633Z,1.95
2022-11-26T10:43:50.345Z,1.70
2022-11-26T10:47:53.174Z,2.67
2022-11-26T10:51:37.700Z,2.33
2022-11-26T10:55:41.603Z,1.90
2022-11-26T10:59:30.953Z,2.00
2022-11-26T11:04:06.049Z,2.33
2022-11-26T11:07:38.796Z,1.73
2022-11-26T11:11:25.456Z,1.70
2022-11-26T11:15:35.407Z,1.90
2022-11-26T11:19:26.526Z,1.90
2022-11-26T11:23:11.368Z,1.88
2022-11-26T11:27:20.611Z,2.55
2022-11-26T11:31:38.733Z,2.00
2022-11-26T11:36:09.519Z,2.00
2022-11-26T11:40:17.204Z,1.83
2022-11-26T11:44:25.016Z,2.30
2022-11-26T11:53:28.943Z,1.97
2022-11-26T11:57:36.197Z,1.90
2022-11-26T12:02:04.285Z,2.10
2022-11-26T12:06:07.936Z,2.00
2022-11-26T12:10:13.562Z,2.00
2022-11-26T12:14:01.067Z,1.95
2022-11-26T12:18:14.186Z,2.00
2022-11-26T12:22:26.508Z,1.70
2022-11-26T12:26:30.944Z,1.80
2022-11-26T12:30:17.593Z,1.88
2022-11-26T12:34:50.073Z,2.10
2022-11-26T12:39:19.050Z,2.30
2022-11-26T12:43:49.865Z,2.30
2022-11-26T12:47:42.568Z,1.77
2022-11-26T12:52:03.953Z,1.98
2022-11-26T12:56:42.230Z,1.98
2022-11-26T13:00:43.572Z,2.10
2022-11-26T13:04:38.681Z,2.37
2022-11-26T13:08:53.273Z,1.70
2022-11-26T13:13:13.895Z,2.20
2022-11-26T13:17:52.170Z,2.50
2022-11-26T13:22:25.189Z,1.70
2022-11-26T13:27:04.491Z,2.08
2022-11-26T13:31:20.119Z,1.95
2022-11-26T13:35:46.174Z,1.75
2022-11-26T13:40:37.928Z,2.28
2022-11-26T13:44:54.730Z,1.70
2022-11-26T13:49:38.822Z,2.33
2022-11-26T13:53:48.575Z,2.20
2022-11-26T13:58:17.958Z,2.10
2022-11-26T14:06:20.400Z,2.45
2022-11-26T14:10:43.435Z,1.85
2022-11-26T14:14:26.465Z,2.03
2022-11-26T14:18:53.240Z,2.05
2022-11-26T14:23:07.839Z,1.77
2022-11-26T14:32:06.922Z,1.87
2022-11-26T14:36:37.768Z,1.80
2022-11-26T14:41:07.245Z,1.60
2022-11-26T14:45:38.921Z,1.30
2022-11-26T14:49:21.655Z,1.65
2022-11-26T14:53:32.214Z,1.50
2022-11-26T15:02:48.457Z,1.70
2022-11-26T15:11:33.951Z,1.60
2022-11-26T15:19:44.195Z,1.80
2022-11-26T15:23:58.319Z,1.88
2022-11-26T15:28:26.900Z,1.80
2022-11-26T15:32:59.061Z,1.35
2022-11-26T15:41:08.919Z,1.50
2022-11-26T15:49:51.083Z,1.67
2022-11-26T16:02:34.129Z,1.90
2022-11-26T16:06:41.513Z,1.25
2022-11-26T16:10:27.449Z,1.53
2022-11-26T16:14:29.916Z,1.20
2022-11-26T16:18:17.372Z,1.55
2022-11-26T16:22:04.534Z,2.03
2022-11-26T16:26:07.546Z,2.40
2022-11-26T16:29:49.936Z,1.70
2022-11-26T16:33:31.904Z,2.08
2022-11-26T16:37:49.699Z,2.07
2022-11-26T16:41:29.674Z,2.65
2022-11-26T16:45:15.196Z,2.60
2022-11-26T16:48:57.394Z,2.23
2022-11-26T16:52:39.391Z,2.15
2022-11-26T16:56:37.468Z,1.88
2022-11-26T17:00:24.703Z,2.08
2022-11-26T17:04:06.573Z,2.47
2022-11-26T17:07:54.056Z,2.13
2022-11-26T17:11:36.008Z,2.25
2022-11-26T17:15:18.255Z,2.53
2022-11-26T17:19:00.162Z,2.47
2022-11-26T17:22:42.241Z,2.90
2022-11-26T17:26:24.793Z,2.97
2022-11-26T17:30:07.770Z,2.58
2022-11-26T17:33:50.721Z,2.42
2022-11-26T17:37:32.711Z,2.83
2022-11-26T17:41:15.634Z,2.33
2022-11-26T17:44:57.542Z,3.38
2022-11-26T17:48:39.487Z,3.38
2022-11-26T17:52:22.985Z,3.03
2022-11-26T17:56:05.110Z,3.63
2022-11-26T17:59:47.029Z,2.78
2022-11-26T18:03:28.994Z,2.67
2022-11-26T18:07:16.429Z,2.00
2022-11-26T18:10:58.669Z,2.55
2022-11-26T18:14:43.875Z,2.33
2022-11-26T18:18:26.704Z,2.92
2022-11-26T18:22:10.490Z,2.47
2022-11-26T18:25:52.672Z,2.85
2022-11-26T18:29:35.156Z,2.87
2022-11-26T18:33:17.091Z,2.38
2022-11-26T18:36:58.994Z,2.00
2022-11-26T18:40:40.939Z,2.00
2022-11-26T18:44:23.188Z,1.85
2022-11-26T18:48:05.493Z,1.30
2022-11-26T18:51:49.171Z,1.63
2022-11-26T18:55:31.078Z,1.50
2022-11-26T18:59:14.215Z,1.60
2022-11-26T19:02:56.298Z,1.63
2022-11-26T19:06:40.722Z,1.13
2022-11-26T19:10:22.742Z,1.20
2022-11-26T19:14:04.664Z,1.50
2022-11-26T19:17:46.619Z,1.13
2022-11-26T19:21:30.783Z,1.10
2022-11-26T19:25:13.014Z,1.00
2022-11-26T19:28:55.009Z,1.27
2022-11-26T19:32:36.952Z,1.60
2022-11-26T19:36:19.376Z,1.30
2022-11-26T19:40:01.523Z,0.90
2022-11-26T19:43:43.535Z,1.10
2022-11-26T19:47:25.519Z,0.80
2022-11-26T19:51:08.930Z,0.80
2022-11-26T19:54:52.871Z,1.00
2022-11-26T19:58:36.404Z,1.13
2022-11-26T20:02:18.357Z,0.80
2022-11-26T20:06:11.528Z,1.25
2022-11-26T20:09:53.548Z,0.73
2022-11-26T20:13:36.866Z,0.68
2022-11-26T20:17:18.802Z,0.85
2022-11-26T20:21:02.666Z,0.80
2022-11-26T20:24:44.527Z,0.90
2022-11-26T20:28:26.680Z,0.88
2022-11-26T20:32:08.742Z,1.30
2022-11-26T20:35:51.598Z,0.80
2022-11-26T20:39:33.627Z,0.70
2022-11-26T20:43:15.675Z,0.60
2022-11-26T20:46:57.729Z,0.80
2022-11-26T20:50:39.658Z,0.50
2022-11-26T20:54:21.572Z,0.75
2022-11-26T20:58:03.560Z,0.70
2022-11-26T21:01:45.618Z,0.90
2022-11-26T21:05:27.679Z,0.80
2022-11-26T21:09:12.231Z,0.67
2022-11-26T21:12:54.243Z,0.65
2022-11-26T21:16:36.149Z,0.60
2022-11-26T21:20:18.471Z,0.65
2022-11-26T21:24:04.536Z,0.50
2022-11-26T21:27:47.370Z,0.55
2022-11-26T21:31:31.920Z,0.40
2022-11-26T21:35:14.267Z,0.40
2022-11-26T21:38:56.188Z,0.60
2022-11-26T21:42:38.437Z,0.63
2022-11-26T21:46:23.426Z,0.50
2022-11-26T21:50:06.541Z,0.40
2022-11-26T21:53:49.771Z,0.60
2022-11-26T21:57:32.814Z,0.60
2022-11-26T22:01:28.115Z,0.50
2022-11-26T22:05:10.042Z,0.57
2022-11-26T22:08:52.530Z,0.60
2022-11-26T22:12:34.454Z,0.50
2022-11-26T22:16:18.633Z,0.63
2022-11-26T22:20:00.528Z,0.40
2022-11-26T22:23:42.390Z,0.50
2022-11-26T22:27:24.312Z,0.40
2022-11-26T22:31:19.194Z,0.60
2022-11-26T22:35:01.137Z,0.70
2022-11-26T22:38:43.169Z,0.52
2022-11-26T22:42:25.168Z,0.40
2022-11-26T22:46:10.574Z,0.40
2022-11-26T22:49:52.594Z,0.50
2022-11-26T22:53:34.886Z,0.40
2022-11-26T22:57:21.010Z,0.50
2022-11-26T23:01:08.058Z,0.40
2022-11-26T23:04:51.930Z,0.30
2022-11-26T23:08:34.393Z,0.70
2022-11-26T23:12:16.279Z,0.57
2022-11-26T23:15:58.239Z,0.85
2022-11-26T23:19:40.334Z,1.15
2022-11-26T23:23:22.328Z,0.45
2022-11-26T23:27:04.228Z,0.60
2022-11-26T23:30:46.276Z,0.57
2022-11-26T23:34:28.179Z,2.35
2022-11-26T23:38:10.358Z,1.07
2022-11-26T23:41:52.234Z,0.90
2022-11-26T23:45:34.111Z,11.13
2022-11-26T23:49:16.003Z,7.07
2022-11-26T23:52:57.893Z,5.40
2022-11-26T23:56:44.409Z,4.20
